Kagoshima Airport
RJFK : now visible

Airfield :











YOU CAN JOIN US ON...

 
LOGIN :

Register | Disclaimer

   EN    FR    IT 

 









Legend :    VFR   Marginal VFR   IFR   Intensive IFR   Very Intensive IFR
Visi :
Ceiling :
>= 8 km
>= 3000ft
5 to 8 km
1000 to 3000 ft
1500m to 5 km
500 to 1000 ft
800 to 1500m
200 to 500 ft
< 800m
< 200 ft
Symbols :   Thunderstorms  Fog  Heavy snow  Heavy precipitations  Wind > 20 kt







- Airport Elevation : 906 ft
- IATA code : KOJ


RJFK - Kagoshima

CURRENT METAR :
  • 220700Z 31013KT CAVOK 15/05 Q1011

EXPIRED METARs :
  • 220600Z 33014KT 9999 FEW030 BKN100 BKN/// 14/03 Q1011
  • 220500Z 33015KT 9999 FEW040 BKN100 BKN/// 15/05 Q1010 RMK 1CU040 6AC100 A2985 VOLCANIC ASH CLOUD S

TAF TAF RJFK
Valid from the 22 at 06:00 until the 23 at 12:00 UTC


220505Z 2206/2312 33012KT 9999 FEW030
RJJJ FIR / Asia



MET'MAP, your aeronautical weather chart ! - Copyright ORBIFLY December 2007 - Disclaimer

ORBIFLY MET'MAP TEAM :

Programming & Development : Alexandra Zaïnal
Concept & Development : Baudouin d'Aumeries
Co-Development & Prog : Marc-Olivier Méhu
Technical & hardware support : Manuel Goepfert

Contact : metmap@orbifly.com




SOURCES & CREDITS :

   NOAA       Earth
Advisory